Time;durP1;ratioP1;P1;durP2;ratioP2;P2;SDS_P1;SDS_P2;PMS_P1;PMS_P2;Temp;Humidity;BMP_temperature;BMP_pressure;BME280_temperature;BME280_humidity;BME280_pressure;Samples;Min_cycle;Max_cycle;Signal;HPM_P1;HPM_P2
2022/08/10 00:01:15;;;;;;;8.52;5.57;;;;;;;;;;5051110;28;20045;-74
2022/08/10 00:04:20;;;;;;;8.52;6.47;;;;;;;;;;5050362;28;20374;-74
2022/08/10 00:07:25;;;;;;;10.57;6.47;;;;;;;;;;5051047;28;20260;-74
2022/08/10 00:10:29;;;;;;;9.38;5.95;;;;;;;;;;5050958;28;20048;-74
2022/08/10 00:13:34;;;;;;;8.60;6.28;;;;;;;;;;5051137;28;20033;-74
2022/08/10 00:16:38;;;;;;;12.52;6.05;;;;;;;;;;5050289;28;20508;-74
2022/08/10 00:19:42;;;;;;;8.30;5.10;;;;;;;;;;5050971;28;20040;-74
2022/08/10 00:22:47;;;;;;;6.53;5.80;;;;;;;;;;5050860;28;20550;-74
2022/08/10 00:25:51;;;;;;;9.52;5.50;;;;;;;;;;5051068;28;20480;-74
2022/08/10 00:28:56;;;;;;;5.63;4.35;;;;;;;;;;5050529;28;20489;-74
2022/08/10 00:32:00;;;;;;;8.23;5.53;;;;;;;;;;5050553;28;20033;-74
2022/08/10 00:35:05;;;;;;;7.25;5.07;;;;;;;;;;5050939;28;20037;-74
2022/08/10 00:38:09;;;;;;;6.20;4.88;;;;;;;;;;5050701;28;20198;-74
2022/08/10 00:41:13;;;;;;;9.23;4.68;;;;;;;;;;5050646;28;20049;-74
2022/08/10 00:44:17;;;;;;;7.18;4.45;;;;;;;;;;5050814;28;20049;-74
2022/08/10 00:47:22;;;;;;;7.15;3.45;;;;;;;;;;5050592;28;20389;-74
2022/08/10 00:50:27;;;;;;;7.63;3.90;;;;;;;;;;5050830;28;20053;-74
2022/08/10 00:53:31;;;;;;;5.85;3.95;;;;;;;;;;5050360;28;20029;-74
2022/08/10 00:56:36;;;;;;;5.07;3.20;;;;;;;;;;5050598;28;20041;-74
2022/08/10 00:59:40;;;;;;;6.63;3.30;;;;;;;;;;5050795;28;20029;-74
2022/08/10 01:02:44;;;;;;;5.18;3.47;;;;;;;;;;5050608;28;20577;-74
2022/08/10 01:05:54;;;;;;;6.80;4.03;;;;;;;;;;5050835;28;20041;-74
2022/08/10 01:09:22;;;;;;;5.20;3.55;;;;;;;;;;5050430;28;20049;-74
2022/08/10 01:12:45;;;;;;;6.70;3.33;;;;;;;;;;5051784;28;20041;-74
2022/08/10 01:16:12;;;;;;;7.30;3.85;;;;;;;;;;5053892;28;20053;-74
2022/08/10 01:19:22;;;;;;;5.72;3.60;;;;;;;;;;5054150;28;20033;-74
2022/08/10 01:22:45;;;;;;;5.90;3.55;;;;;;;;;;5054235;28;20041;-74
2022/08/10 01:26:10;;;;;;;4.53;3.58;;;;;;;;;;5054060;28;20045;-74
2022/08/10 01:29:24;;;;;;;6.68;3.83;;;;;;;;;;5054062;28;20049;-74
2022/08/10 01:32:47;;;;;;;4.70;4.20;;;;;;;;;;5054137;28;20041;-74
2022/08/10 01:36:07;;;;;;;4.60;3.63;;;;;;;;;;5054102;28;20037;-74
2022/08/10 01:39:13;;;;;;;11.32;4.00;;;;;;;;;;5052889;28;20028;-74
2022/08/10 01:42:19;;;;;;;7.32;4.28;;;;;;;;;;5014040;28;20049;-74
2022/08/10 01:45:24;;;;;;;6.18;4.35;;;;;;;;;;5014112;28;20482;-74
2022/08/10 01:48:36;;;;;;;5.78;4.65;;;;;;;;;;5014004;28;20378;-74
2022/08/10 01:51:45;;;;;;;7.75;4.60;;;;;;;;;;5013923;28;20037;-74
2022/08/10 01:54:51;;;;;;;11.18;5.55;;;;;;;;;;5013912;28;20049;-74
2022/08/10 01:57:56;;;;;;;7.95;5.43;;;;;;;;;;5013947;28;20037;-74
2022/08/10 02:01:01;;;;;;;7.93;5.35;;;;;;;;;;5013846;28;20042;-74
2022/08/10 02:04:08;;;;;;;6.95;4.88;;;;;;;;;;5014068;28;20034;-74
2022/08/10 02:07:14;;;;;;;10.43;5.20;;;;;;;;;;5012770;28;20050;-74
2022/08/10 02:10:19;;;;;;;6.75;5.00;;;;;;;;;;5013704;28;20065;-74
2022/08/10 02:13:23;;;;;;;8.68;5.28;;;;;;;;;;5013461;28;20034;-74
2022/08/10 02:16:29;;;;;;;9.35;4.90;;;;;;;;;;5012844;28;20038;-74
2022/08/10 02:19:35;;;;;;;7.90;4.70;;;;;;;;;;5013444;28;20034;-74
2022/08/10 02:22:39;;;;;;;5.68;4.13;;;;;;;;;;5013355;28;20034;-74
2022/08/10 02:25:44;;;;;;;7.32;4.75;;;;;;;;;;5013518;28;20378;-74
2022/08/10 02:28:49;;;;;;;9.93;5.55;;;;;;;;;;5013020;28;20042;-74
2022/08/10 02:31:54;;;;;;;11.55;4.97;;;;;;;;;;5013013;28;20042;-74
2022/08/10 02:34:58;;;;;;;6.05;4.53;;;;;;;;;;5013224;28;20057;-74
2022/08/10 02:38:04;;;;;;;11.52;5.50;;;;;;;;;;5013158;28;20042;-74
2022/08/10 02:41:11;;;;;;;6.00;5.10;;;;;;;;;;5037420;28;20500;-74
2022/08/10 02:44:22;;;;;;;7.50;4.95;;;;;;;;;;5053023;28;20044;-74
2022/08/10 02:47:36;;;;;;;6.50;4.50;;;;;;;;;;5051717;28;20361;-74
2022/08/10 02:50:42;;;;;;;6.20;4.47;;;;;;;;;;5052584;28;20287;-74
2022/08/10 02:53:56;;;;;;;7.78;5.25;;;;;;;;;;5052500;28;20032;-74
2022/08/10 02:57:04;;;;;;;9.98;5.32;;;;;;;;;;5052518;28;20049;-74
2022/08/10 03:00:09;;;;;;;9.30;4.97;;;;;;;;;;5052065;28;20381;-74
2022/08/10 03:03:24;;;;;;;6.50;4.90;;;;;;;;;;5051869;28;20481;-74
2022/08/10 03:06:33;;;;;;;7.05;4.93;;;;;;;;;;5052155;28;20041;-74
2022/08/10 03:09:39;;;;;;;5.85;5.18;;;;;;;;;;5052161;28;20040;-74
2022/08/10 03:12:45;;;;;;;7.30;5.15;;;;;;;;;;5051414;28;20033;-74
2022/08/10 03:15:50;;;;;;;7.10;5.28;;;;;;;;;;5052267;28;20041;-74
2022/08/10 03:18:55;;;;;;;8.75;5.13;;;;;;;;;;5051275;28;20040;-74
2022/08/10 03:22:00;;;;;;;6.97;4.70;;;;;;;;;;5051666;28;20032;-74
2022/08/10 03:25:05;;;;;;;6.15;5.05;;;;;;;;;;5051046;28;20041;-74
2022/08/10 03:28:10;;;;;;;8.80;5.10;;;;;;;;;;5051831;28;20562;-74
2022/08/10 03:31:15;;;;;;;10.80;5.25;;;;;;;;;;5051889;28;20184;-74
2022/08/10 03:34:20;;;;;;;9.98;5.45;;;;;;;;;;5051381;28;20033;-74
2022/08/10 03:37:26;;;;;;;14.85;8.90;;;;;;;;;;5051632;28;20041;-74
2022/08/10 03:40:33;;;;;;;5.47;4.90;;;;;;;;;;5050643;28;20049;-74
2022/08/10 03:43:38;;;;;;;8.05;5.65;;;;;;;;;;5051384;28;20037;-74
2022/08/10 03:46:44;;;;;;;9.38;5.88;;;;;;;;;;5050642;28;20048;-74
2022/08/10 03:49:50;;;;;;;8.65;5.85;;;;;;;;;;5050725;28;20414;-74
2022/08/10 03:52:54;;;;;;;10.80;5.80;;;;;;;;;;5051628;28;20366;-74
2022/08/10 03:55:58;;;;;;;8.77;5.60;;;;;;;;;;5050494;28;20047;-74
2022/08/10 03:59:03;;;;;;;11.88;6.70;;;;;;;;;;5051727;28;20041;-74
2022/08/10 04:02:08;;;;;;;7.30;5.88;;;;;;;;;;5039119;28;20044;-74
2022/08/10 04:05:14;;;;;;;8.13;6.05;;;;;;;;;;5051254;28;20041;-74
2022/08/10 04:08:19;;;;;;;9.27;6.57;;;;;;;;;;5049839;28;20025;-74
2022/08/10 04:11:23;;;;;;;7.50;6.63;;;;;;;;;;5051036;28;20033;-74
2022/08/10 04:14:27;;;;;;;8.27;6.50;;;;;;;;;;5051032;28;20473;-74
2022/08/10 04:17:31;;;;;;;12.68;6.38;;;;;;;;;;5050773;28;20033;-74
2022/08/10 04:20:38;;;;;;;9.95;5.53;;;;;;;;;;5050006;28;20029;-74
2022/08/10 04:23:46;;;;;;;8.32;6.47;;;;;;;;;;5051051;28;20484;-74
2022/08/10 04:26:51;;;;;;;9.55;6.35;;;;;;;;;;5051018;28;20445;-74
2022/08/10 04:29:56;;;;;;;9.23;5.78;;;;;;;;;;5049855;28;20048;-74
2022/08/10 04:33:02;;;;;;;14.93;6.63;;;;;;;;;;5050096;28;20037;-74
2022/08/10 04:36:08;;;;;;;6.53;5.50;;;;;;;;;;5049734;28;20045;-74
2022/08/10 04:39:13;;;;;;;14.95;6.32;;;;;;;;;;5050157;28;20041;-74
2022/08/10 04:42:18;;;;;;;10.55;5.65;;;;;;;;;;5050672;28;20384;-74
2022/08/10 04:45:22;;;;;;;14.18;6.15;;;;;;;;;;5050111;28;20048;-74
2022/08/10 04:48:27;;;;;;;14.50;6.50;;;;;;;;;;5053261;28;20029;-75
2022/08/10 04:51:31;;;;;;;8.75;6.07;;;;;;;;;;5054142;28;20055;-75
2022/08/10 04:54:35;;;;;;;14.20;7.38;;;;;;;;;;5053718;28;20041;-75
2022/08/10 04:57:40;;;;;;;10.60;5.60;;;;;;;;;;5054517;28;20045;-75
2022/08/10 05:00:44;;;;;;;14.48;5.93;;;;;;;;;;5054770;28;20041;-75
2022/08/10 05:03:48;;;;;;;12.88;6.40;;;;;;;;;;5054504;28;20037;-75
2022/08/10 05:06:53;;;;;;;10.48;6.07;;;;;;;;;;5054446;28;20040;-75
2022/08/10 05:09:58;;;;;;;9.60;6.05;;;;;;;;;;5041725;28;20056;-75
2022/08/10 05:13:03;;;;;;;8.02;5.80;;;;;;;;;;5054369;28;20397;-75
2022/08/10 05:16:07;;;;;;;13.93;5.10;;;;;;;;;;5054062;28;20033;-75
2022/08/10 05:19:11;;;;;;;15.65;5.55;;;;;;;;;;5041627;28;20531;-75
2022/08/10 05:22:16;;;;;;;14.45;5.03;;;;;;;;;;5053527;28;20040;-75
2022/08/10 05:25:20;;;;;;;13.85;6.10;;;;;;;;;;5053871;28;20493;-75
2022/08/10 05:28:24;;;;;;;11.57;5.32;;;;;;;;;;5053941;28;20434;-75
2022/08/10 05:31:29;;;;;;;9.50;5.40;;;;;;;;;;5052965;28;20033;-73
2022/08/10 05:34:34;;;;;;;10.45;5.47;;;;;;;;;;5053353;28;20500;-73
2022/08/10 05:37:38;;;;;;;11.50;5.22;;;;;;;;;;5052847;28;20033;-74
2022/08/10 05:40:43;;;;;;;9.93;5.13;;;;;;;;;;5052165;28;20056;-74
2022/08/10 05:43:55;;;;;;;11.50;5.40;;;;;;;;;;5053244;28;20033;-74
2022/08/10 05:47:00;;;;;;;11.18;5.18;;;;;;;;;;5052325;28;20044;-74
2022/08/10 05:50:04;;;;;;;8.13;4.80;;;;;;;;;;5052900;28;20044;-74
2022/08/10 05:53:09;;;;;;;8.68;4.90;;;;;;;;;;5053239;28;20044;-74
2022/08/10 05:56:13;;;;;;;11.43;4.97;;;;;;;;;;5051799;28;20045;-71
2022/08/10 05:59:19;;;;;;;9.00;5.40;;;;;;;;;;5051556;28;20048;-73
2022/08/10 06:02:37;;;;;;;10.30;5.10;;;;;;;;;;5052584;28;20037;-73
2022/08/10 06:05:44;;;;;;;10.35;4.80;;;;;;;;;;5052355;28;20041;-73
2022/08/10 06:08:49;;;;;;;9.70;5.07;;;;;;;;;;5052219;28;20503;-74
2022/08/10 06:11:54;;;;;;;6.97;4.93;;;;;;;;;;5051115;28;20041;-73
2022/08/10 06:15:02;;;;;;;9.88;5.07;;;;;;;;;;5051249;28;20370;-73
2022/08/10 06:18:08;;;;;;;12.00;5.45;;;;;;;;;;5051694;28;20611;-73
2022/08/10 06:21:14;;;;;;;12.60;5.22;;;;;;;;;;5051851;28;20041;-72
2022/08/10 06:24:22;;;;;;;7.50;4.80;;;;;;;;;;5051951;28;20041;-72
2022/08/10 06:27:26;;;;;;;6.45;4.13;;;;;;;;;;5051767;28;20037;-72
2022/08/10 06:30:31;;;;;;;9.75;4.72;;;;;;;;;;5050983;28;20040;-73
2022/08/10 06:33:38;;;;;;;13.52;5.03;;;;;;;;;;5050713;28;20036;-74
2022/08/10 06:36:43;;;;;;;8.05;4.97;;;;;;;;;;5051395;28;20029;-72
2022/08/10 06:39:47;;;;;;;8.80;4.53;;;;;;;;;;5008544;28;1232713;-74
2022/08/10 06:42:53;;;;;;;10.95;4.63;;;;;;;;;;5052495;28;20044;-74
2022/08/10 06:46:02;;;;;;;8.45;4.70;;;;;;;;;;5052415;28;20045;-73
2022/08/10 06:49:08;;;;;;;6.03;4.65;;;;;;;;;;5052788;28;20040;-73
2022/08/10 06:52:13;;;;;;;9.10;4.80;;;;;;;;;;5052494;28;20041;-73
2022/08/10 06:55:20;;;;;;;11.27;4.57;;;;;;;;;;5052226;28;20037;-73
2022/08/10 06:58:28;;;;;;;8.90;4.85;;;;;;;;;;5052273;28;20036;-73
2022/08/10 07:01:33;;;;;;;10.68;4.88;;;;;;;;;;5052610;28;20037;-73
2022/08/10 07:04:54;;;;;;;11.02;4.68;;;;;;;;;;5052103;28;20044;-72
2022/08/10 07:08:00;;;;;;;12.00;4.97;;;;;;;;;;5052115;28;20044;-73
2022/08/10 07:11:05;;;;;;;7.47;4.82;;;;;;;;;;5051199;28;20044;-73
2022/08/10 07:14:11;;;;;;;8.70;4.80;;;;;;;;;;5052251;28;20481;-72
2022/08/10 07:17:23;;;;;;;10.52;4.57;;;;;;;;;;5052151;28;20037;-72
2022/08/10 07:20:28;;;;;;;6.50;3.83;;;;;;;;;;5051458;28;20049;-72
2022/08/10 07:23:34;;;;;;;12.75;4.10;;;;;;;;;;5052113;28;20041;-72
2022/08/10 07:26:42;;;;;;;9.18;3.97;;;;;;;;;;5051456;28;20144;-71
2022/08/10 07:29:46;;;;;;;10.43;4.35;;;;;;;;;;5051336;28;20037;-70
2022/08/10 07:32:52;;;;;;;11.80;4.55;;;;;;;;;;5050756;28;20041;-75
2022/08/10 07:35:57;;;;;;;8.40;4.43;;;;;;;;;;5051303;28;20414;-72
2022/08/10 07:39:03;;;;;;;11.25;3.70;;;;;;;;;;5050463;28;20480;-73
2022/08/10 07:42:09;;;;;;;7.10;4.13;;;;;;;;;;5051405;28;20048;-74
2022/08/10 07:45:14;;;;;;;5.60;4.00;;;;;;;;;;5051652;28;20477;-73
2022/08/10 07:48:26;;;;;;;6.85;3.95;;;;;;;;;;5050244;28;20033;-74
2022/08/10 07:51:32;;;;;;;5.47;3.88;;;;;;;;;;5050642;28;20037;-73
2022/08/10 07:54:44;;;;;;;8.73;4.30;;;;;;;;;;5051364;28;20492;-71
2022/08/10 07:57:50;;;;;;;6.10;4.40;;;;;;;;;;5050831;28;20032;-73
2022/08/10 08:00:55;;;;;;;17.58;5.22;;;;;;;;;;5050962;28;20481;-74
2022/08/10 08:04:00;;;;;;;16.13;4.75;;;;;;;;;;5050461;28;20040;-73
2022/08/10 08:07:07;;;;;;;6.43;4.60;;;;;;;;;;5051133;28;20036;-75
2022/08/10 08:10:12;;;;;;;5.75;4.65;;;;;;;;;;5049964;28;20037;-75
2022/08/10 08:13:17;;;;;;;8.27;4.35;;;;;;;;;;5050253;28;20045;-74
2022/08/10 08:16:23;;;;;;;7.63;4.70;;;;;;;;;;5051043;28;20092;-74
2022/08/10 08:19:28;;;;;;;7.10;4.72;;;;;;;;;;5038673;28;20372;-75
2022/08/10 08:22:33;;;;;;;5.70;4.22;;;;;;;;;;5049925;28;20041;-76
2022/08/10 08:25:38;;;;;;;7.65;4.20;;;;;;;;;;5050996;28;20279;-74
2022/08/10 08:28:44;;;;;;;6.00;5.00;;;;;;;;;;5050682;28;20037;-76
2022/08/10 08:31:49;;;;;;;6.57;4.97;;;;;;;;;;5049655;28;20385;-74
2022/08/10 08:35:02;;;;;;;8.80;5.00;;;;;;;;;;5050844;28;20036;-74
2022/08/10 08:38:06;;;;;;;5.15;4.65;;;;;;;;;;5049863;28;20390;-75
2022/08/10 08:41:13;;;;;;;10.00;5.32;;;;;;;;;;5038076;28;20480;-76
2022/08/10 08:44:21;;;;;;;7.55;4.80;;;;;;;;;;5050619;28;20044;-75
2022/08/10 08:47:44;;;;;;;5.55;5.00;;;;;;;;;;5050623;28;20041;-75
2022/08/10 08:50:48;;;;;;;9.60;4.97;;;;;;;;;;5050892;28;20045;-77
2022/08/10 08:53:56;;;;;;;8.13;5.05;;;;;;;;;;5050850;28;20044;-75
2022/08/10 08:57:03;;;;;;;6.65;4.90;;;;;;;;;;5050871;28;20037;-76
2022/08/10 09:00:26;;;;;;;7.32;5.35;;;;;;;;;;5038246;28;20049;-76
2022/08/10 09:03:36;;;;;;;6.40;5.10;;;;;;;;;;5050679;28;20029;-79
2022/08/10 09:06:51;;;;;;;6.32;5.20;;;;;;;;;;5050650;28;20040;-78
2022/08/10 09:10:00;;;;;;;6.15;4.78;;;;;;;;;;5050725;28;20125;-77
2022/08/10 09:13:28;;;;;;;15.13;5.97;;;;;;;;;;5050618;28;20033;-77
2022/08/10 09:16:37;;;;;;;10.00;4.88;;;;;;;;;;5050472;28;20048;-76
2022/08/10 09:19:46;;;;;;;9.68;5.55;;;;;;;;;;5049569;28;20041;-76
2022/08/10 09:22:50;;;;;;;7.32;5.15;;;;;;;;;;5050093;28;20517;-75
2022/08/10 09:25:58;;;;;;;10.98;6.10;;;;;;;;;;5049537;28;20037;-79
2022/08/10 09:29:05;;;;;;;18.23;5.85;;;;;;;;;;5050538;28;20071;-78
2022/08/10 09:32:10;;;;;;;14.07;5.70;;;;;;;;;;5050537;28;20042;-77
2022/08/10 09:35:21;;;;;;;6.88;5.35;;;;;;;;;;5054088;28;20492;-79
2022/08/10 09:38:41;;;;;;;7.78;5.07;;;;;;;;;;5054276;28;20044;-75
2022/08/10 09:42:00;;;;;;;5.95;5.00;;;;;;;;;;5053313;28;20045;-77
2022/08/10 09:45:10;;;;;;;10.95;5.15;;;;;;;;;;5053115;28;20037;-75
2022/08/10 09:48:27;;;;;;;7.57;4.93;;;;;;;;;;5053964;28;20037;-77
2022/08/10 09:51:39;;;;;;;6.25;4.78;;;;;;;;;;5052921;28;20037;-77
2022/08/10 09:54:55;;;;;;;6.20;5.40;;;;;;;;;;5053694;28;20040;-76
2022/08/10 09:58:10;;;;;;;7.53;5.35;;;;;;;;;;5053553;28;20040;-76
2022/08/10 10:01:19;;;;;;;9.70;5.38;;;;;;;;;;5053212;28;20053;-73
2022/08/10 10:04:25;;;;;;;9.60;5.20;;;;;;;;;;5052665;28;20041;-76
2022/08/10 10:07:30;;;;;;;10.55;5.35;;;;;;;;;;5052956;28;20480;-76
2022/08/10 10:10:38;;;;;;;9.00;5.13;;;;;;;;;;5053192;28;20037;-76
2022/08/10 10:14:01;;;;;;;6.00;5.00;;;;;;;;;;5053167;28;20033;-76
2022/08/10 10:17:16;;;;;;;6.40;5.30;;;;;;;;;;5053150;28;20037;-75
2022/08/10 10:20:26;;;;;;;8.00;5.07;;;;;;;;;;5052996;28;20143;-75
2022/08/10 10:23:42;;;;;;;6.07;4.95;;;;;;;;;;5051923;28;20385;-76
2022/08/10 10:26:55;;;;;;;8.20;5.22;;;;;;;;;;5050898;28;20029;-77
2022/08/10 10:30:03;;;;;;;9.63;5.20;;;;;;;;;;5051132;28;20362;-76
2022/08/10 10:33:07;;;;;;;5.47;4.97;;;;;;;;;;5051021;28;20037;-75
2022/08/10 10:36:14;;;;;;;6.10;4.85;;;;;;;;;;5050895;28;20033;-75
2022/08/10 10:39:20;;;;;;;6.82;5.10;;;;;;;;;;5050616;28;20429;-76
2022/08/10 10:42:36;;;;;;;6.30;4.57;;;;;;;;;;5052833;28;20461;-75
2022/08/10 10:45:47;;;;;;;6.82;5.13;;;;;;;;;;5051079;28;20041;-75
2022/08/10 10:48:51;;;;;;;9.65;4.93;;;;;;;;;;5052886;28;20504;-76
2022/08/10 10:51:55;;;;;;;7.80;5.47;;;;;;;;;;5053013;28;20366;-76
2022/08/10 10:55:19;;;;;;;13.77;5.60;;;;;;;;;;5052426;28;20268;-77
2022/08/10 10:58:23;;;;;;;7.93;5.10;;;;;;;;;;5051715;28;20041;-75
2022/08/10 11:01:27;;;;;;;10.23;5.45;;;;;;;;;;5052035;28;20041;-75
2022/08/10 11:04:31;;;;;;;6.68;5.28;;;;;;;;;;5052272;28;20036;-75
2022/08/10 11:07:55;;;;;;;7.65;5.38;;;;;;;;;;5052160;28;20037;-74
2022/08/10 11:11:02;;;;;;;7.78;4.95;;;;;;;;;;5051495;28;20029;-76
2022/08/10 11:14:12;;;;;;;7.43;5.00;;;;;;;;;;5051198;28;20045;-74
2022/08/10 11:17:25;;;;;;;8.07;5.28;;;;;;;;;;5052059;28;20048;-74
2022/08/10 11:20:38;;;;;;;5.35;4.85;;;;;;;;;;5051861;28;20049;-75
2022/08/10 11:24:03;;;;;;;6.63;5.57;;;;;;;;;;5051408;28;20037;-75
2022/08/10 11:27:07;;;;;;;8.85;5.93;;;;;;;;;;5051210;28;20041;-76
2022/08/10 11:30:13;;;;;;;6.45;5.28;;;;;;;;;;5051247;28;20045;-75
2022/08/10 11:33:22;;;;;;;6.88;5.10;;;;;;;;;;5051689;28;20041;-74
2022/08/10 11:36:36;;;;;;;5.50;4.90;;;;;;;;;;5051118;28;20037;-75
2022/08/10 11:39:49;;;;;;;6.78;5.25;;;;;;;;;;5050735;28;20037;-74
2022/08/10 11:43:06;;;;;;;8.57;5.28;;;;;;;;;;5050974;28;20045;-76
2022/08/10 11:46:29;;;;;;;5.93;5.00;;;;;;;;;;5050741;28;20037;-74
2022/08/10 11:49:41;;;;;;;7.38;5.40;;;;;;;;;;5051339;28;20044;-76
2022/08/10 11:52:48;;;;;;;7.00;5.68;;;;;;;;;;5051190;28;20493;-76
2022/08/10 11:55:57;;;;;;;6.90;5.60;;;;;;;;;;5050770;28;20380;-76
2022/08/10 12:02:25;;;;;;;8.65;5.72;;;;;;;;;;5050904;28;20049;-74
2022/08/10 12:05:33;;;;;;;7.03;5.80;;;;;;;;;;5051340;28;20033;-76
2022/08/10 12:08:40;;;;;;;6.35;5.18;;;;;;;;;;5050935;28;20032;-76
2022/08/10 12:11:45;;;;;;;6.28;5.20;;;;;;;;;;5051382;28;20366;-76
2022/08/10 12:14:56;;;;;;;5.60;4.90;;;;;;;;;;5050962;28;20037;-76
2022/08/10 12:18:02;;;;;;;6.10;5.50;;;;;;;;;;5050829;28;20037;-76
2022/08/10 12:21:09;;;;;;;6.95;4.93;;;;;;;;;;5050799;28;20401;-75
2022/08/10 12:24:35;;;;;;;7.63;5.72;;;;;;;;;;5051029;28;20366;-75
2022/08/10 12:27:41;;;;;;;8.75;5.78;;;;;;;;;;5050294;28;20082;-76
2022/08/10 12:30:51;;;;;;;6.03;5.35;;;;;;;;;;5050958;28;20481;-72
2022/08/10 12:34:03;;;;;;;9.38;5.63;;;;;;;;;;5050720;28;20041;-77
2022/08/10 12:37:20;;;;;;;14.98;6.25;;;;;;;;;;5050670;28;20036;-73
2022/08/10 12:40:30;;;;;;;9.25;5.53;;;;;;;;;;5050335;28;20543;-76
2022/08/10 12:43:39;;;;;;;7.40;5.07;;;;;;;;;;5050603;28;20041;-76
2022/08/10 12:46:50;;;;;;;6.03;5.00;;;;;;;;;;5050627;28;20037;-76
2022/08/10 12:50:02;;;;;;;7.47;5.38;;;;;;;;;;5050549;28;20037;-74
2022/08/10 12:53:33;;;;;;;5.32;4.80;;;;;;;;;;5050595;28;20300;-74
2022/08/10 12:56:43;;;;;;;9.45;5.47;;;;;;;;;;5050686;28;20465;-75
2022/08/10 12:59:49;;;;;;;6.65;5.00;;;;;;;;;;5050252;28;20060;-75
2022/08/10 13:02:54;;;;;;;5.93;4.88;;;;;;;;;;5049689;28;20048;-75
2022/08/10 13:06:02;;;;;;;5.60;4.97;;;;;;;;;;5049362;28;20037;-74
2022/08/10 13:09:07;;;;;;;6.15;4.50;;;;;;;;;;5053180;28;20033;-74
2022/08/10 13:12:14;;;;;;;6.68;5.00;;;;;;;;;;5054147;28;20033;-75
2022/08/10 13:15:24;;;;;;;7.65;4.65;;;;;;;;;;5054238;28;20465;-76
2022/08/10 13:18:31;;;;;;;7.70;4.50;;;;;;;;;;5053230;28;20037;-77
2022/08/10 13:21:36;;;;;;;6.32;4.65;;;;;;;;;;5053010;28;20045;-76
2022/08/10 13:24:42;;;;;;;4.82;4.32;;;;;;;;;;5054228;28;20041;-76
2022/08/10 13:27:47;;;;;;;7.63;4.38;;;;;;;;;;5053798;28;20369;-77
2022/08/10 13:30:53;;;;;;;6.38;4.60;;;;;;;;;;5054110;28;20057;-76
2022/08/10 13:34:04;;;;;;;5.47;4.50;;;;;;;;;;5054124;28;20053;-74
2022/08/10 13:37:10;;;;;;;6.43;4.97;;;;;;;;;;5053811;28;20029;-75
2022/08/10 13:40:15;;;;;;;9.77;4.70;;;;;;;;;;5053448;28;20053;-74
2022/08/10 13:43:19;;;;;;;7.75;4.97;;;;;;;;;;5053853;28;20469;-73
2022/08/10 13:46:24;;;;;;;6.53;5.00;;;;;;;;;;5053969;28;20045;-74
2022/08/10 13:49:30;;;;;;;7.20;4.47;;;;;;;;;;5053865;28;20549;-75
2022/08/10 13:52:36;;;;;;;6.75;4.68;;;;;;;;;;5053712;28;20377;-74
2022/08/10 13:55:45;;;;;;;8.23;4.70;;;;;;;;;;5053267;28;20041;-74
2022/08/10 13:58:52;;;;;;;12.55;5.15;;;;;;;;;;5053621;28;20041;-74
2022/08/10 14:01:58;;;;;;;9.35;4.82;;;;;;;;;;5052457;28;20064;-75
2022/08/10 14:05:03;;;;;;;7.80;4.75;;;;;;;;;;5053282;28;20057;-75
2022/08/10 14:08:11;;;;;;;10.30;5.03;;;;;;;;;;5053449;28;20049;-76
2022/08/10 14:11:17;;;;;;;7.32;5.00;;;;;;;;;;5052477;28;20393;-76
2022/08/10 14:14:21;;;;;;;8.02;5.00;;;;;;;;;;5052220;28;20041;-76
2022/08/10 14:17:27;;;;;;;6.78;4.70;;;;;;;;;;5053193;28;20040;-76
2022/08/10 14:20:33;;;;;;;7.63;4.85;;;;;;;;;;5052686;28;20040;-76
2022/08/10 14:23:45;;;;;;;7.65;4.53;;;;;;;;;;5052914;28;20036;-75
2022/08/10 14:26:49;;;;;;;6.40;4.50;;;;;;;;;;5052985;28;20033;-76
2022/08/10 14:29:55;;;;;;;7.38;4.93;;;;;;;;;;5052942;28;20041;-76
2022/08/10 14:33:02;;;;;;;9.65;4.85;;;;;;;;;;5052819;28;20040;-76
2022/08/10 14:36:09;;;;;;;9.05;5.20;;;;;;;;;;5052117;28;20448;-78
2022/08/10 14:39:19;;;;;;;5.80;4.80;;;;;;;;;;5052802;28;20040;-77
2022/08/10 14:42:36;;;;;;;7.28;5.15;;;;;;;;;;5052671;28;20061;-77
2022/08/10 14:45:43;;;;;;;8.02;5.25;;;;;;;;;;5052763;28;20040;-78
2022/08/10 14:48:48;;;;;;;7.15;4.95;;;;;;;;;;5052926;28;20032;-77
2022/08/10 14:51:52;;;;;;;6.80;5.10;;;;;;;;;;5052377;28;20477;-77
2022/08/10 14:55:02;;;;;;;8.20;4.93;;;;;;;;;;5052660;28;20370;-77
2022/08/10 14:58:06;;;;;;;8.07;4.82;;;;;;;;;;5052559;28;20485;-76
2022/08/10 15:01:16;;;;;;;10.27;5.72;;;;;;;;;;5052338;28;20040;-76
2022/08/10 15:04:22;;;;;;;8.85;6.10;;;;;;;;;;5052814;28;20045;-80
2022/08/10 15:07:28;;;;;;;24.35;6.65;;;;;;;;;;5051559;28;20045;-78
2022/08/10 15:10:32;;;;;;;26.13;9.35;;;;;;;;;;5052071;28;20041;-76
2022/08/10 15:13:41;;;;;;;14.30;6.10;;;;;;;;;;5052357;28;20446;-76
2022/08/10 15:16:46;;;;;;;8.40;5.35;;;;;;;;;;5051932;28;20040;-74
2022/08/10 15:19:52;;;;;;;9.00;4.70;;;;;;;;;;5052228;28;20481;-75
2022/08/10 15:23:03;;;;;;;7.15;5.65;;;;;;;;;;5052278;28;20493;-75
2022/08/10 15:26:08;;;;;;;10.35;5.93;;;;;;;;;;5052050;28;20036;-77
2022/08/10 15:29:14;;;;;;;10.13;6.78;;;;;;;;;;5051674;28;20044;-76
2022/08/10 15:39:09;;;;;;;11.07;7.13;;;;;;;;;;5051966;28;20053;-76
2022/08/10 15:42:20;;;;;;;11.60;7.15;;;;;;;;;;5051682;28;20404;-77
2022/08/10 15:45:25;;;;;;;9.60;5.75;;;;;;;;;;5051729;28;20040;-77
2022/08/10 15:48:32;;;;;;;8.23;4.97;;;;;;;;;;5051784;28;20037;-76
2022/08/10 15:51:56;;;;;;;4.85;3.53;;;;;;;;;;5051560;28;20485;-76
2022/08/10 15:55:15;;;;;;;7.40;3.95;;;;;;;;;;5051044;28;20041;-73
2022/08/10 15:58:22;;;;;;;4.60;3.30;;;;;;;;;;5051339;28;20476;-73
2022/08/10 16:01:32;;;;;;;4.05;3.50;;;;;;;;;;5051289;28;20057;-76
2022/08/10 16:04:46;;;;;;;5.63;3.60;;;;;;;;;;5051261;28;20036;-75
2022/08/10 16:07:56;;;;;;;9.07;3.55;;;;;;;;;;5051151;28;20041;-75
2022/08/10 16:11:05;;;;;;;4.93;3.50;;;;;;;;;;5051253;28;20477;-76
2022/08/10 16:14:17;;;;;;;6.18;3.80;;;;;;;;;;5051186;28;20037;-73
2022/08/10 16:17:21;;;;;;;9.65;5.47;;;;;;;;;;5050861;28;20037;-73
2022/08/10 16:20:37;;;;;;;14.10;5.95;;;;;;;;;;5050914;28;20346;-77
2022/08/10 16:23:44;;;;;;;19.10;6.30;;;;;;;;;;5050184;28;20044;-76
2022/08/10 16:26:50;;;;;;;11.80;6.03;;;;;;;;;;5050157;28;20041;-75
2022/08/10 16:29:56;;;;;;;11.02;6.38;;;;;;;;;;5051176;28;20048;-72
2022/08/10 16:33:00;;;;;;;14.90;7.07;;;;;;;;;;5050814;28;20048;-73
2022/08/10 16:36:05;;;;;;;12.68;6.70;;;;;;;;;;5050979;28;20045;-74
2022/08/10 16:39:10;;;;;;;17.33;6.25;;;;;;;;;;5051101;28;20040;-75
2022/08/10 16:42:20;;;;;;;15.88;6.88;;;;;;;;;;5051923;28;20052;-75
2022/08/10 16:45:30;;;;;;;18.40;7.53;;;;;;;;;;5054927;28;20029;-74
2022/08/10 16:48:36;;;;;;;19.80;7.38;;;;;;;;;;5054622;28;20048;-73
2022/08/10 16:51:41;;;;;;;19.05;8.10;;;;;;;;;;5054082;28;20029;-72
2022/08/10 16:54:47;;;;;;;17.27;8.52;;;;;;;;;;5053800;28;20184;-74
2022/08/10 16:57:52;;;;;;;14.43;7.45;;;;;;;;;;5054608;28;20037;-74
2022/08/10 17:01:00;;;;;;;13.10;7.40;;;;;;;;;;5054413;28;20555;-73
2022/08/10 17:04:07;;;;;;;14.00;7.55;;;;;;;;;;5054241;28;20033;-72
2022/08/10 17:07:13;;;;;;;13.95;7.55;;;;;;;;;;5054820;28;20509;-72
2022/08/10 17:10:19;;;;;;;16.23;7.95;;;;;;;;;;5054413;28;20048;-73
2022/08/10 17:13:26;;;;;;;17.10;8.45;;;;;;;;;;5054553;28;20033;-74
2022/08/10 17:16:35;;;;;;;16.25;9.27;;;;;;;;;;5053335;28;20048;-75
2022/08/10 17:19:44;;;;;;;11.95;7.20;;;;;;;;;;5030800;28;20045;-76
2022/08/10 17:22:50;;;;;;;7.53;5.10;;;;;;;;;;5053992;28;20048;-74
2022/08/10 17:25:58;;;;;;;10.63;5.82;;;;;;;;;;5053927;28;20045;-73
2022/08/10 17:29:06;;;;;;;11.93;6.35;;;;;;;;;;5054374;28;20044;-76
2022/08/10 17:32:14;;;;;;;10.25;6.22;;;;;;;;;;5053340;28;20033;-73
2022/08/10 17:35:20;;;;;;;12.65;7.60;;;;;;;;;;5053820;28;20056;-75
2022/08/10 17:38:26;;;;;;;10.32;7.50;;;;;;;;;;5054041;28;20032;-76
2022/08/10 17:41:32;;;;;;;12.40;8.38;;;;;;;;;;5052701;28;20120;-74
2022/08/10 17:44:39;;;;;;;15.63;8.02;;;;;;;;;;5053763;28;20051;-75
2022/08/10 17:47:48;;;;;;;10.77;5.63;;;;;;;;;;5053326;28;20512;-73
2022/08/10 17:50:53;;;;;;;9.45;6.10;;;;;;;;;;5053212;28;20056;-74
2022/08/10 17:53:59;;;;;;;7.70;5.72;;;;;;;;;;5052101;28;20045;-74
2022/08/10 17:57:05;;;;;;;9.18;5.55;;;;;;;;;;5053033;28;20486;-73
2022/08/10 18:00:14;;;;;;;12.88;5.22;;;;;;;;;;5053666;28;20040;-74
2022/08/10 18:03:21;;;;;;;9.68;5.80;;;;;;;;;;5052488;28;20053;-72
2022/08/10 18:06:25;;;;;;;10.98;5.60;;;;;;;;;;5053374;28;20032;-74
2022/08/10 18:09:34;;;;;;;10.48;5.07;;;;;;;;;;5053511;28;20033;-73
2022/08/10 18:12:49;;;;;;;8.07;5.68;;;;;;;;;;5053400;28;20077;-73
2022/08/10 18:15:55;;;;;;;11.68;6.00;;;;;;;;;;5053246;28;20037;-73
2022/08/10 18:19:03;;;;;;;8.15;5.72;;;;;;;;;;5053467;28;20052;-73
2022/08/10 18:22:10;;;;;;;10.77;5.80;;;;;;;;;;5053154;28;20049;-73
2022/08/10 18:25:23;;;;;;;10.77;6.57;;;;;;;;;;5052326;28;20409;-73
2022/08/10 18:28:28;;;;;;;7.85;6.10;;;;;;;;;;5051465;28;20052;-73
2022/08/10 18:31:34;;;;;;;12.68;6.88;;;;;;;;;;5052444;28;20057;-71
2022/08/10 18:34:40;;;;;;;9.52;6.35;;;;;;;;;;5052594;28;20052;-73
2022/08/10 18:37:48;;;;;;;16.60;6.65;;;;;;;;;;5052768;28;20041;-73
2022/08/10 18:40:57;;;;;;;14.45;6.70;;;;;;;;;;5052677;28;20390;-73
2022/08/10 18:44:04;;;;;;;8.75;6.43;;;;;;;;;;5052778;28;20048;-73
2022/08/10 18:47:12;;;;;;;10.18;6.70;;;;;;;;;;5052389;28;20033;-73
2022/08/10 18:50:20;;;;;;;8.73;6.53;;;;;;;;;;5051742;28;20050;-73